createdAt,value
2016-04-23T00:00:38.779Z,1008.95
2016-04-23T00:01:21.719Z,1008.94
2016-04-23T00:02:04.628Z,1008.96
2016-04-23T00:02:47.519Z,1008.91
2016-04-23T00:03:30.412Z,1008.96
2016-04-23T00:04:13.446Z,1008.9
2016-04-23T00:04:56.633Z,1008.93
2016-04-23T00:05:39.605Z,1008.89
2016-04-23T00:06:22.593Z,1008.91
2016-04-23T00:07:05.641Z,1008.91
2016-04-23T00:07:48.626Z,1008.88
2016-04-23T00:08:31.629Z,1008.9
2016-04-23T00:09:14.521Z,1008.89
2016-04-23T00:09:57.443Z,1008.86
2016-04-23T00:10:40.322Z,1008.85
2016-04-23T00:11:23.262Z,1008.89
2016-04-23T00:12:06.187Z,1008.88
2016-04-23T00:12:49.218Z,1008.9
2016-04-23T00:13:32.126Z,1008.86
2016-04-23T00:14:15.004Z,1008.85
2016-04-23T00:14:57.895Z,1008.82
2016-04-23T00:15:40.788Z,1008.84
2016-04-23T00:16:23.681Z,1008.81
2016-04-23T00:17:06.700Z,1008.83
2016-04-23T00:17:49.637Z,1008.82
2016-04-23T00:18:32.515Z,1008.77
2016-04-23T00:19:15.456Z,1008.78
2016-04-23T00:19:58.315Z,1008.77
2016-04-23T00:20:41.098Z,1008.74
2016-04-23T00:21:24.086Z,1008.73
2016-04-23T00:22:07.073Z,1008.73
2016-04-23T00:22:49.964Z,1008.72
2016-04-23T00:23:33.028Z,1008.76
2016-04-23T00:24:15.937Z,1008.74
2016-04-23T00:24:58.844Z,1008.73
2016-04-23T00:25:41.769Z,1008.68
2016-04-23T00:26:24.661Z,1008.69
2016-04-23T00:27:07.555Z,1008.68
2016-04-23T00:27:50.508Z,1008.71
2016-04-23T00:28:33.402Z,1008.67
2016-04-23T00:29:16.388Z,1008.69
2016-04-23T00:29:59.154Z,1008.68
2016-04-23T00:30:42.188Z,1008.69
2016-04-23T00:31:25.222Z,1008.64
2016-04-23T00:32:08.225Z,1008.72
2016-04-23T00:32:51.022Z,1008.74
2016-04-23T00:33:33.196Z,1008.69
2016-04-23T00:34:16.152Z,1008.7
2016-04-23T00:34:59.089Z,1008.66
2016-04-23T00:35:41.827Z,1008.65
2016-04-23T00:36:24.735Z,1008.65
2016-04-23T00:37:07.629Z,1008.65
2016-04-23T00:37:50.535Z,1008.67
2016-04-23T00:38:33.491Z,1008.67
2016-04-23T00:39:16.384Z,1008.6
2016-04-23T00:39:59.118Z,1008.64
2016-04-23T00:40:41.996Z,1008.61
2016-04-23T00:41:24.874Z,1008.64
2016-04-23T00:42:07.767Z,1008.67
2016-04-23T00:42:50.657Z,1008.65
2016-04-23T00:43:33.535Z,1008.63
2016-04-23T00:44:16.429Z,1008.61
2016-04-23T00:44:59.335Z,1008.59
2016-04-23T00:45:42.229Z,1008.59
2016-04-23T00:46:25.106Z,1008.56
2016-04-23T00:47:07.999Z,1008.56
2016-04-23T00:47:50.937Z,1008.54
2016-04-23T00:48:33.065Z,1008.57
2016-04-23T00:49:15.942Z,1008.56
2016-04-23T00:49:58.833Z,1008.53
2016-04-23T00:50:41.711Z,1008.54
2016-04-23T00:51:24.619Z,1008.55
2016-04-23T00:52:07.513Z,1008.53
2016-04-23T00:52:50.404Z,1008.52
2016-04-23T00:53:33.265Z,1008.53
2016-04-23T00:54:16.159Z,1008.53
2016-04-23T00:54:58.893Z,1008.56
2016-04-23T00:55:41.786Z,1008.56
2016-04-23T00:56:24.680Z,1008.57
2016-04-23T00:57:07.605Z,1008.53
2016-04-23T00:57:50.511Z,1008.54
2016-04-23T00:58:33.388Z,1008.55
2016-04-23T00:59:16.266Z,1008.54
2016-04-23T00:59:59.156Z,1008.56
2016-04-23T01:00:42.050Z,1008.53
2016-04-23T01:01:24.959Z,1008.52
2016-04-23T01:02:07.852Z,1008.49
2016-04-23T01:02:50.774Z,1008.47
2016-04-23T01:03:33.651Z,1008.46
2016-04-23T01:04:16.529Z,1008.42
2016-04-23T01:04:59.435Z,1008.45
2016-04-23T01:05:42.330Z,1008.45
2016-04-23T01:06:25.238Z,1008.42
2016-04-23T01:07:08.131Z,1008.42
2016-04-23T01:07:51.052Z,1008.42
2016-04-23T01:08:33.931Z,1008.43
2016-04-23T01:09:16.824Z,1008.41
2016-04-23T01:09:59.715Z,1008.43
2016-04-23T01:10:42.624Z,1008.39
2016-04-23T01:11:25.517Z,1008.46
2016-04-23T01:12:08.427Z,1008.41
2016-04-23T01:12:51.317Z,1008.4
2016-04-23T01:13:34.179Z,1008.46
2016-04-23T01:14:17.087Z,1008.46
2016-04-23T01:14:59.978Z,1008.41
2016-04-23T01:15:42.840Z,1008.43
2016-04-23T01:16:25.733Z,1008.42
2016-04-23T01:17:08.643Z,1008.36
2016-04-23T01:17:51.534Z,1008.42
2016-04-23T01:18:34.426Z,1008.38
2016-04-23T01:19:17.304Z,1008.41
2016-04-23T01:19:59.398Z,1008.36
2016-04-23T01:20:42.292Z,1008.33
2016-04-23T01:21:25.185Z,1008.36
2016-04-23T01:22:08.078Z,1008.32
2016-04-23T01:22:50.984Z,1008.32
2016-04-23T01:23:33.939Z,1008.32
2016-04-23T01:24:16.849Z,1008.34
2016-04-23T01:24:59.724Z,1008.32
2016-04-23T01:25:42.648Z,1008.35
2016-04-23T01:26:25.526Z,1008.33
2016-04-23T01:27:08.403Z,1008.32
2016-04-23T01:27:51.278Z,1008.35
2016-04-23T01:28:34.188Z,1008.34
2016-04-23T01:29:17.066Z,1008.32
2016-04-23T01:29:59.956Z,1008.32
2016-04-23T01:30:42.849Z,1008.3
2016-04-23T01:31:25.742Z,1008.3
2016-04-23T01:32:08.620Z,1008.3
2016-04-23T01:32:51.527Z,1008.32
2016-04-23T01:33:34.405Z,1008.29
2016-04-23T01:34:17.313Z,1008.35
2016-04-23T01:35:00.219Z,1008.36
2016-04-23T01:35:43.191Z,1008.32
2016-04-23T01:36:26.116Z,1008.36
2016-04-23T01:37:09.102Z,1008.33
2016-04-23T01:37:52.024Z,1008.33
2016-04-23T01:38:34.965Z,1008.34
2016-04-23T01:39:17.921Z,1008.34
2016-04-23T01:40:00.891Z,1008.28
2016-04-23T01:40:43.845Z,1008.35
2016-04-23T01:41:26.801Z,1008.33
2016-04-23T01:42:09.741Z,1008.36
2016-04-23T01:42:52.679Z,1008.34
2016-04-23T01:43:35.665Z,1008.31
2016-04-23T01:44:18.621Z,1008.32
2016-04-23T01:45:01.593Z,1008.33
2016-04-23T01:45:44.390Z,1008.3
2016-04-23T01:46:27.346Z,1008.33
2016-04-23T01:47:10.285Z,1008.31
2016-04-23T01:47:53.239Z,1008.3
2016-04-23T01:48:36.179Z,1008.3
2016-04-23T01:49:19.151Z,1008.26
2016-04-23T01:50:02.122Z,1008.29
2016-04-23T01:50:45.075Z,1008.28
2016-04-23T01:51:28.046Z,1008.26
2016-04-23T01:52:11.017Z,1008.27
2016-04-23T01:52:53.955Z,1008.26
2016-04-23T01:53:36.912Z,1008.29
2016-04-23T01:54:19.867Z,1008.28
2016-04-23T01:55:02.838Z,1008.24
2016-04-23T01:55:45.775Z,1008.26
2016-04-23T01:56:29.060Z,1008.24
2016-04-23T01:57:12.000Z,1008.24
2016-04-23T01:57:54.937Z,1008.25
2016-04-23T01:58:37.894Z,1008.22
2016-04-23T01:59:20.849Z,1008.16
2016-04-23T02:00:03.790Z,1008.22
2016-04-23T02:00:46.759Z,1008.19
2016-04-23T02:01:29.714Z,1008.16
2016-04-23T02:02:12.700Z,1008.19
2016-04-23T02:02:55.669Z,1008.14
2016-04-23T02:03:38.610Z,1008.16
2016-04-23T02:04:21.549Z,1008.11
2016-04-23T02:05:04.522Z,1008.11
2016-04-23T02:05:47.491Z,1008.08
2016-04-23T02:06:30.430Z,1008.11
2016-04-23T02:07:13.386Z,1008.14
2016-04-23T02:07:56.371Z,1008.15
2016-04-23T02:08:39.155Z,1008.14
2016-04-23T02:09:22.111Z,1008.11
2016-04-23T02:10:05.051Z,1008.13
2016-04-23T02:10:48.004Z,1008.15
2016-04-23T02:11:30.959Z,1008.1
2016-04-23T02:12:13.916Z,1008.12
2016-04-23T02:12:56.885Z,1008.13
2016-04-23T02:13:39.824Z,1008.15
2016-04-23T02:14:22.765Z,1008.14
2016-04-23T02:15:05.704Z,1008.12
2016-04-23T02:15:48.657Z,1008.14
2016-04-23T02:16:31.613Z,1008.13
2016-04-23T02:17:14.585Z,1008.12
2016-04-23T02:17:57.554Z,1008.11
2016-04-23T02:18:40.493Z,1008.13
2016-04-23T02:19:23.450Z,1008.06
2016-04-23T02:20:06.406Z,1008.06
2016-04-23T02:20:49.343Z,1008.06
2016-04-23T02:21:32.315Z,1008.02
2016-04-23T02:22:14.958Z,1008.01
2016-04-23T02:22:57.592Z,1007.99
2016-04-23T02:23:40.533Z,1008.01
2016-04-23T02:24:23.489Z,1007.98
2016-04-23T02:25:06.413Z,1007.99
2016-04-23T02:25:49.382Z,1007.96
2016-04-23T02:26:32.338Z,1007.97
2016-04-23T02:27:15.277Z,1007.99
2016-04-23T02:27:58.246Z,1007.98
2016-04-23T02:28:41.219Z,1007.98
2016-04-23T02:29:24.158Z,1007.97
2016-04-23T02:30:07.099Z,1007.95
2016-04-23T02:30:50.067Z,1007.94
2016-04-23T02:31:33.039Z,1007.94
2016-04-23T02:32:15.979Z,1007.92
2016-04-23T02:32:58.947Z,1007.92
2016-04-23T02:33:41.950Z,1007.95
2016-04-23T02:34:24.906Z,1007.94
2016-04-23T02:35:07.862Z,1007.9
2016-04-23T02:35:50.877Z,1007.92
2016-04-23T02:36:33.833Z,1007.89
2016-04-23T02:37:16.790Z,1007.93
2016-04-23T02:37:59.727Z,1007.93
2016-04-23T02:38:42.713Z,1007.95
2016-04-23T02:39:25.701Z,1007.93
2016-04-23T02:40:08.657Z,1007.91
2016-04-23T02:40:51.594Z,1007.93
2016-04-23T02:41:34.550Z,1007.97
2016-04-23T02:42:17.490Z,1007.94
2016-04-23T02:43:00.459Z,1007.94
2016-04-23T02:43:43.415Z,1007.89
2016-04-23T02:44:26.355Z,1007.9
2016-04-23T02:45:09.326Z,1007.85
2016-04-23T02:45:52.279Z,1007.87
2016-04-23T02:46:35.267Z,1007.92
2016-04-23T02:47:18.223Z,1007.91
2016-04-23T02:48:01.067Z,1007.92
2016-04-23T02:48:43.990Z,1007.95
2016-04-23T02:49:26.931Z,1007.9
2016-04-23T02:50:09.886Z,1007.9
2016-04-23T02:50:52.855Z,1007.89
2016-04-23T02:51:35.828Z,1007.87
2016-04-23T02:52:18.767Z,1007.85
2016-04-23T02:53:01.580Z,1007.84
2016-04-23T02:53:44.519Z,1007.86
2016-04-23T02:54:27.492Z,1007.87
2016-04-23T02:55:10.431Z,1007.84
2016-04-23T02:55:53.244Z,1007.8
2016-04-23T02:56:36.216Z,1007.84
2016-04-23T02:57:19.171Z,1007.82
2016-04-23T02:58:02.093Z,1007.84
2016-04-23T02:58:45.065Z,1007.85
2016-04-23T02:59:27.864Z,1007.85
2016-04-23T03:00:10.835Z,1007.89
2016-04-23T03:00:53.788Z,1007.86
2016-04-23T03:01:36.760Z,1007.88
2016-04-23T03:02:19.544Z,1007.87
2016-04-23T03:03:02.500Z,1007.88
2016-04-23T03:03:45.438Z,1007.85
2016-04-23T03:04:28.393Z,1007.88
2016-04-23T03:05:11.333Z,1007.83
2016-04-23T03:05:54.302Z,1007.87
2016-04-23T03:06:37.258Z,1007.85
2016-04-23T03:07:20.213Z,1007.82
2016-04-23T03:08:03.169Z,1007.86
2016-04-23T03:08:46.138Z,1007.84
2016-04-23T03:09:29.079Z,1007.83
2016-04-23T03:10:12.019Z,1007.86
2016-04-23T03:10:54.972Z,1007.88
2016-04-23T03:11:37.943Z,1007.82
2016-04-23T03:12:20.883Z,1007.84
2016-04-23T03:13:03.855Z,1007.83
2016-04-23T03:13:46.808Z,1007.77
2016-04-23T03:14:29.748Z,1007.78
2016-04-23T03:15:12.687Z,1007.77
2016-04-23T03:15:55.656Z,1007.79
2016-04-23T03:16:38.613Z,1007.8
2016-04-23T03:17:21.553Z,1007.77
2016-04-23T03:18:04.525Z,1007.76
2016-04-23T03:18:47.462Z,1007.78
2016-04-23T03:19:30.403Z,1007.74
2016-04-23T03:20:13.359Z,1007.74
2016-04-23T03:20:56.312Z,1007.7
2016-04-23T03:21:39.236Z,1007.73
2016-04-23T03:22:22.192Z,1007.76
2016-04-23T03:23:05.178Z,1007.72
2016-04-23T03:23:48.116Z,1007.71
2016-04-23T03:24:31.072Z,1007.7
2016-04-23T03:25:14.011Z,1007.71
2016-04-23T03:25:56.949Z,1007.68
2016-04-23T03:26:39.921Z,1007.69
2016-04-23T03:27:22.893Z,1007.69
2016-04-23T03:28:05.864Z,1007.66
2016-04-23T03:28:48.786Z,1007.72
2016-04-23T03:29:31.758Z,1007.72
2016-04-23T03:30:14.682Z,1007.69
2016-04-23T03:30:57.635Z,1007.7
2016-04-23T03:31:40.575Z,1007.71
2016-04-23T03:32:23.531Z,1007.72
2016-04-23T03:33:06.486Z,1007.72
2016-04-23T03:33:49.455Z,1007.74
2016-04-23T03:34:32.396Z,1007.72
2016-04-23T03:35:15.336Z,1007.71
2016-04-23T03:35:58.305Z,1007.7
2016-04-23T03:36:41.261Z,1007.7
2016-04-23T03:37:24.247Z,1007.69
2016-04-23T03:38:07.204Z,1007.71
2016-04-23T03:38:50.141Z,1007.69
2016-04-23T03:39:33.097Z,1007.66
2016-04-23T03:40:16.052Z,1007.65
2016-04-23T03:40:59.005Z,1007.62
2016-04-23T03:41:41.961Z,1007.64
2016-04-23T03:42:24.901Z,1007.63
2016-04-23T03:43:07.858Z,1007.6
2016-04-23T03:43:50.811Z,1007.6
2016-04-23T03:44:33.641Z,1007.59
2016-04-23T03:45:16.582Z,1007.61
2016-04-23T03:45:59.535Z,1007.52
2016-04-23T03:46:42.490Z,1007.53
2016-04-23T03:47:25.446Z,1007.56
2016-04-23T03:48:08.402Z,1007.61
2016-04-23T03:48:51.324Z,1007.58
2016-04-23T03:49:34.295Z,1007.6
2016-04-23T03:50:17.251Z,1007.55
2016-04-23T03:51:00.220Z,1007.59
2016-04-23T03:51:43.160Z,1007.59
2016-04-23T03:52:26.101Z,1007.57
2016-04-23T03:53:09.040Z,1007.59
2016-04-23T03:53:51.994Z,1007.6
2016-04-23T03:54:34.950Z,1007.59
2016-04-23T03:55:17.909Z,1007.64
2016-04-23T03:56:00.893Z,1007.61
2016-04-23T03:56:43.834Z,1007.62
2016-04-23T03:57:26.790Z,1007.63
2016-04-23T03:58:09.760Z,1007.62
2016-04-23T03:58:52.698Z,1007.63
2016-04-23T03:59:35.639Z,1007.64
2016-04-23T04:00:18.609Z,1007.65
2016-04-23T04:01:01.562Z,1007.65
2016-04-23T04:01:44.504Z,1007.67
2016-04-23T04:02:27.476Z,1007.62
2016-04-23T04:03:10.431Z,1007.67
2016-04-23T04:03:53.368Z,1007.64
2016-04-23T04:04:36.308Z,1007.63
2016-04-23T04:05:19.264Z,1007.65
2016-04-23T04:06:02.217Z,1007.64
2016-04-23T04:06:45.204Z,1007.66
2016-04-23T04:07:27.348Z,1007.64
2016-04-23T04:08:10.304Z,1007.63
2016-04-23T04:08:53.288Z,1007.68
2016-04-23T04:09:36.212Z,1007.66
2016-04-23T04:10:19.167Z,1007.61
2016-04-23T04:11:02.121Z,1007.63
2016-04-23T04:11:45.109Z,1007.62
2016-04-23T04:12:28.048Z,1007.61
2016-04-23T04:13:11.005Z,1007.6
2016-04-23T04:13:53.942Z,1007.63
2016-04-23T04:14:36.898Z,1007.67
2016-04-23T04:15:19.853Z,1007.61
2016-04-23T04:16:02.666Z,1007.59
2016-04-23T04:16:45.638Z,1007.59
2016-04-23T04:17:28.609Z,1007.59
2016-04-23T04:18:11.564Z,1007.6
2016-04-23T04:18:54.502Z,1007.6
2016-04-23T04:19:37.474Z,1007.62
2016-04-23T04:20:20.413Z,1007.61
2016-04-23T04:21:03.351Z,1007.62
2016-04-23T04:21:46.322Z,1007.61
2016-04-23T04:22:29.279Z,1007.6
2016-04-23T04:23:12.266Z,1007.57
2016-04-23T04:23:55.203Z,1007.6
2016-04-23T04:24:38.175Z,1007.55
2016-04-23T04:25:21.115Z,1007.54
2016-04-23T04:26:04.068Z,1007.56
2016-04-23T04:26:47.008Z,1007.56
2016-04-23T04:27:29.963Z,1007.59
2016-04-23T04:28:12.920Z,1007.59
2016-04-23T04:28:55.920Z,1007.58
2016-04-23T04:29:38.876Z,1007.62
2016-04-23T04:30:21.847Z,1007.59
2016-04-23T04:31:04.801Z,1007.65
2016-04-23T04:31:47.741Z,1007.63
2016-04-23T04:32:30.712Z,1007.6
2016-04-23T04:33:13.652Z,1007.59
2016-04-23T04:33:56.605Z,1007.61
2016-04-23T04:34:39.561Z,1007.62
2016-04-23T04:35:22.517Z,1007.61
2016-04-23T04:36:05.470Z,1007.66
2016-04-23T04:36:48.425Z,1007.64
2016-04-23T04:37:31.397Z,1007.65
2016-04-23T04:38:14.337Z,1007.65
2016-04-23T04:38:57.290Z,1007.64
2016-04-23T04:39:40.293Z,1007.61
2016-04-23T04:40:23.265Z,1007.63
2016-04-23T04:41:06.220Z,1007.62
2016-04-23T04:41:49.173Z,1007.63
2016-04-23T04:42:32.114Z,1007.63
2016-04-23T04:43:15.069Z,1007.65
2016-04-23T04:43:58.022Z,1007.63
2016-04-23T04:44:40.994Z,1007.64
2016-04-23T04:45:23.966Z,1007.61
2016-04-23T04:46:06.906Z,1007.61
2016-04-23T04:46:49.859Z,1007.57
2016-04-23T04:47:32.815Z,1007.56
2016-04-23T04:48:15.770Z,1007.52
2016-04-23T04:48:58.708Z,1007.54
2016-04-23T04:49:41.727Z,1007.51
2016-04-23T04:50:24.682Z,1007.53
2016-04-23T04:51:07.935Z,1007.51
2016-04-23T04:51:51.247Z,1007.52
2016-04-23T04:52:34.905Z,1007.53
2016-04-23T04:53:18.033Z,1007.54
2016-04-23T04:54:01.033Z,1007.55
2016-04-23T04:54:44.052Z,1007.53
2016-04-23T04:55:27.024Z,1007.5
2016-04-23T04:56:10.136Z,1007.51
2016-04-23T04:56:53.183Z,1007.52
2016-04-23T04:57:36.263Z,1007.48
2016-04-23T04:58:19.282Z,1007.51
2016-04-23T04:59:02.422Z,1007.51
2016-04-23T04:59:45.534Z,1007.48
2016-04-23T05:00:28.552Z,1007.52
2016-04-23T05:01:11.634Z,1007.52
2016-04-23T05:01:55.040Z,1007.54
2016-04-23T05:02:38.121Z,1007.54
2016-04-23T05:03:21.171Z,1007.51
2016-04-23T05:04:04.249Z,1007.53
2016-04-23T05:04:47.267Z,1007.52
2016-04-23T05:05:30.363Z,1007.55
2016-04-23T05:06:13.397Z,1007.53
2016-04-23T05:06:56.459Z,1007.5
2016-04-23T05:07:39.354Z,1007.52
2016-04-23T05:08:22.511Z,1007.52
2016-04-23T05:09:05.714Z,1007.52
2016-04-23T05:09:48.811Z,1007.47
2016-04-23T05:10:31.954Z,1007.5
2016-04-23T05:11:14.770Z,1007.48
2016-04-23T05:11:57.848Z,1007.46
2016-04-23T05:12:40.928Z,1007.48
2016-04-23T05:13:23.947Z,1007.47
2016-04-23T05:14:07.106Z,1007.46
2016-04-23T05:14:50.434Z,1007.45
2016-04-23T05:15:32.953Z,1007.45
2016-04-23T05:16:15.970Z,1007.44
2016-04-23T05:16:59.377Z,1007.43
2016-04-23T05:17:42.380Z,1007.45
2016-04-23T05:18:25.570Z,1007.44
2016-04-23T05:19:08.558Z,1007.45
2016-04-23T05:19:51.683Z,1007.46
2016-04-23T05:20:34.575Z,1007.44
2016-04-23T05:21:17.813Z,1007.4
2016-04-23T05:22:00.891Z,1007.41
2016-04-23T05:22:43.971Z,1007.39
2016-04-23T05:23:27.005Z,1007.41
2016-04-23T05:24:10.195Z,1007.4
2016-04-23T05:24:53.320Z,1007.4
2016-04-23T05:25:36.557Z,1007.41
2016-04-23T05:26:19.576Z,1007.43
2016-04-23T05:27:02.607Z,1007.42
2016-04-23T05:27:46.313Z,1007.43
2016-04-23T05:28:29.410Z,1007.4
2016-04-23T05:29:12.490Z,1007.39
2016-04-23T05:29:55.630Z,1007.43
2016-04-23T05:30:39.165Z,1007.45
2016-04-23T05:31:25.292Z,1007.41
2016-04-23T05:32:08.404Z,1007.43
2016-04-23T05:32:51.545Z,1007.42
2016-04-23T05:33:34.548Z,1007.4
2016-04-23T05:34:17.613Z,1007.39
2016-04-23T05:35:00.598Z,1007.41
2016-04-23T05:35:43.568Z,1007.38
2016-04-23T05:36:26.681Z,1007.39
2016-04-23T05:37:10.387Z,1007.39
2016-04-23T05:37:53.402Z,1007.4
2016-04-23T05:38:36.858Z,1007.42
2016-04-23T05:39:20.173Z,1007.39
2016-04-23T05:40:03.314Z,1007.38
2016-04-23T05:40:46.457Z,1007.38
2016-04-23T05:41:29.679Z,1007.37
2016-04-23T05:42:12.806Z,1007.37
2016-04-23T05:42:55.915Z,1007.35
2016-04-23T05:43:39.122Z,1007.39
2016-04-23T05:44:22.812Z,1007.37
2016-04-23T05:45:09.111Z,1007.41
2016-04-23T05:45:52.423Z,1007.42
2016-04-23T05:46:35.661Z,1007.42
2016-04-23T05:47:18.007Z,1007.39
2016-04-23T05:48:01.163Z,1007.37
2016-04-23T05:48:44.573Z,1007.35
2016-04-23T05:49:27.638Z,1007.36
2016-04-23T05:50:10.781Z,1007.38
2016-04-23T05:50:53.937Z,1007.36
2016-04-23T05:51:37.144Z,1007.34
2016-04-23T05:52:20.302Z,1007.38
2016-04-23T05:53:03.521Z,1007.38
2016-04-23T05:53:46.602Z,1007.37
2016-04-23T05:54:29.776Z,1007.37
2016-04-23T05:55:12.982Z,1007.38
2016-04-23T05:55:56.247Z,1007.37
2016-04-23T05:56:39.453Z,1007.41
2016-04-23T05:57:22.862Z,1007.42
2016-04-23T05:58:05.862Z,1007.39
2016-04-23T05:58:48.833Z,1007.39
2016-04-23T05:59:31.774Z,1007.42
2016-04-23T06:00:14.730Z,1007.4
2016-04-23T06:00:57.668Z,1007.4
2016-04-23T06:01:40.670Z,1007.37
2016-04-23T06:02:23.610Z,1007.38
2016-04-23T06:03:06.579Z,1007.39
2016-04-23T06:03:49.534Z,1007.37
2016-04-23T06:04:32.475Z,1007.38
2016-04-23T06:05:15.446Z,1007.38
2016-04-23T06:05:58.446Z,1007.39
2016-04-23T06:06:41.262Z,1007.38
2016-04-23T06:07:24.233Z,1007.38
2016-04-23T06:08:07.233Z,1007.38
2016-04-23T06:08:50.282Z,1007.37
2016-04-23T06:09:33.379Z,1007.39
2016-04-23T06:10:16.444Z,1007.35
2016-04-23T06:10:59.881Z,1007.37
2016-04-23T06:11:42.775Z,1007.4
2016-04-23T06:12:26.543Z,1007.39
2016-04-23T06:13:09.873Z,1007.37
2016-04-23T06:13:53.233Z,1007.38
2016-04-23T06:14:36.595Z,1007.4
2016-04-23T06:15:19.692Z,1007.35
2016-04-23T06:16:02.864Z,1007.37
2016-04-23T06:16:46.195Z,1007.39
2016-04-23T06:17:29.322Z,1007.38
2016-04-23T06:18:12.466Z,1007.36
2016-04-23T06:18:55.716Z,1007.4
2016-04-23T06:19:39.186Z,1007.37
2016-04-23T06:20:22.222Z,1007.39
2016-04-23T06:21:06.159Z,1007.42
2016-04-23T06:21:49.318Z,1007.42
2016-04-23T06:22:32.461Z,1007.43
2016-04-23T06:23:15.620Z,1007.39
2016-04-23T06:23:58.714Z,1007.39
2016-04-23T06:24:41.685Z,1007.4
2016-04-23T06:25:24.625Z,1007.38
2016-04-23T06:26:07.578Z,1007.41
2016-04-23T06:26:50.565Z,1007.36
2016-04-23T06:27:33.505Z,1007.37
2016-04-23T06:28:16.493Z,1007.38
2016-04-23T06:28:59.430Z,1007.34
2016-04-23T06:29:42.402Z,1007.38
2016-04-23T06:30:25.357Z,1007.38
2016-04-23T06:31:08.310Z,1007.38
2016-04-23T06:31:51.266Z,1007.37
2016-04-23T06:32:34.238Z,1007.35
2016-04-23T06:33:17.037Z,1007.4
2016-04-23T06:34:00.052Z,1007.38
2016-04-23T06:34:43.009Z,1007.42
2016-04-23T06:35:25.948Z,1007.39
2016-04-23T06:36:08.921Z,1007.42
2016-04-23T06:36:51.890Z,1007.39
2016-04-23T06:37:34.846Z,1007.38
2016-04-23T06:38:17.801Z,1007.34
2016-04-23T06:39:00.754Z,1007.37
2016-04-23T06:39:43.694Z,1007.32
2016-04-23T06:40:26.665Z,1007.31
2016-04-23T06:41:08.853Z,1007.34
2016-04-23T06:41:51.809Z,1007.28
2016-04-23T06:42:34.764Z,1007.24
2016-04-23T06:43:17.720Z,1007.24
2016-04-23T06:44:00.689Z,1007.3
2016-04-23T06:44:42.848Z,1007.28
2016-04-23T06:45:25.789Z,1007.29
2016-04-23T06:46:09.023Z,1007.29
2016-04-23T06:46:51.978Z,1007.29
2016-04-23T06:47:34.950Z,1007.25
2016-04-23T06:48:17.906Z,1007.26
2016-04-23T06:49:00.875Z,1007.27
2016-04-23T06:49:43.814Z,1007.27
2016-04-23T06:50:26.770Z,1007.25
2016-04-23T06:51:09.741Z,1007.24
2016-04-23T06:51:52.694Z,1007.28
2016-04-23T06:52:35.651Z,1007.27
2016-04-23T06:53:18.592Z,1007.24
2016-04-23T06:54:01.561Z,1007.24
2016-04-23T06:54:44.500Z,1007.26
2016-04-23T06:55:27.456Z,1007.25
2016-04-23T06:56:10.427Z,1007.25
2016-04-23T06:56:53.396Z,1007.26
2016-04-23T06:57:36.336Z,1007.25
2016-04-23T06:58:19.308Z,1007.27
2016-04-23T06:59:02.089Z,1007.25
2016-04-23T06:59:45.029Z,1007.2
2016-04-23T07:00:28.000Z,1007.2
2016-04-23T07:01:10.972Z,1007.25
2016-04-23T07:01:53.910Z,1007.22
2016-04-23T07:02:36.897Z,1007.22
2016-04-23T07:03:19.915Z,1007.24
2016-04-23T07:04:02.883Z,1007.23
2016-04-23T07:04:45.840Z,1007.24
2016-04-23T07:05:28.826Z,1007.22
2016-04-23T07:06:11.766Z,1007.21
2016-04-23T07:06:54.891Z,1007.25
2016-04-23T07:07:37.987Z,1007.22
2016-04-23T07:08:21.382Z,1007.21
2016-04-23T07:09:04.069Z,1007.21
2016-04-23T07:09:47.041Z,1007.22
2016-04-23T07:10:29.996Z,1007.2
2016-04-23T07:11:12.952Z,1007.18
2016-04-23T07:11:55.905Z,1007.2
2016-04-23T07:12:38.861Z,1007.21
2016-04-23T07:13:21.832Z,1007.2
2016-04-23T07:14:04.785Z,1007.19
2016-04-23T07:14:47.742Z,1007.19
2016-04-23T07:15:30.697Z,1007.18
2016-04-23T07:16:13.668Z,1007.15
2016-04-23T07:16:56.606Z,1007.11
2016-04-23T07:17:39.578Z,1007.14
2016-04-23T07:18:22.534Z,1007.1
2016-04-23T07:19:06.253Z,1007.06
2016-04-23T07:19:49.270Z,1007.09
2016-04-23T07:20:32.226Z,1007.1
2016-04-23T07:21:15.181Z,1007.11
2016-04-23T07:21:58.135Z,1007.08
2016-04-23T07:22:40.684Z,1007.1
2016-04-23T07:23:23.656Z,1007.07
2016-04-23T07:24:06.641Z,1007.07
2016-04-23T07:24:49.612Z,1007.07
2016-04-23T07:25:32.567Z,1007.06
2016-04-23T07:26:15.524Z,1007.06
2016-04-23T07:26:58.461Z,1007.02
2016-04-23T07:27:41.432Z,1007.08
2016-04-23T07:28:24.404Z,1007.05
2016-04-23T07:29:07.357Z,1007.07
2016-04-23T07:29:50.313Z,1007.04
2016-04-23T07:30:33.269Z,1007.07
2016-04-23T07:31:16.240Z,1007.08
2016-04-23T07:31:59.193Z,1007.08
2016-04-23T07:32:42.180Z,1007.09
2016-04-23T07:33:25.652Z,1007.1
2016-04-23T07:34:08.496Z,1007.07
2016-04-23T07:34:51.420Z,1007.05
2016-04-23T07:35:34.391Z,1007.05
2016-04-23T07:36:19.629Z,1007.06
2016-04-23T07:37:02.285Z,1007.03
2016-04-23T07:37:45.225Z,1007.05
2016-04-23T07:38:28.181Z,1007.07
2016-04-23T07:39:11.137Z,1007.09
2016-04-23T07:39:54.090Z,1007.1
2016-04-23T07:40:37.029Z,1007.14
2016-04-23T07:41:20.033Z,1007.12
2016-04-23T07:42:02.955Z,1007.11
2016-04-23T07:42:45.955Z,1007.16
2016-04-23T07:43:28.955Z,1007.17
2016-04-23T07:44:11.815Z,1007.14
2016-04-23T07:44:54.768Z,1007.16
2016-04-23T07:45:37.798Z,1007.13
2016-04-23T07:46:20.761Z,1007.14
2016-04-23T07:47:03.745Z,1007.12
2016-04-23T07:47:46.717Z,1007.14
2016-04-23T07:48:29.689Z,1007.1
2016-04-23T07:49:12.505Z,1007.08
2016-04-23T07:49:55.458Z,1007.06
2016-04-23T07:50:38.446Z,1007.07
2016-04-23T07:51:21.410Z,1007.05
2016-04-23T07:52:04.395Z,1007.04
2016-04-23T07:52:47.340Z,1007.08
2016-04-23T07:53:30.302Z,1007.05
2016-04-23T07:54:13.263Z,1007.05
2016-04-23T07:54:56.232Z,1007.05
2016-04-23T07:55:39.178Z,1007.06
2016-04-23T07:56:22.152Z,1007.06
2016-04-23T07:57:05.105Z,1007.06
2016-04-23T07:57:48.079Z,1007.06
2016-04-23T07:58:31.053Z,1007.06
2016-04-23T07:59:14.026Z,1007.06
2016-04-23T07:59:56.979Z,1007.04
2016-04-23T08:00:39.937Z,1007.07
2016-04-23T08:01:22.909Z,1007.03
2016-04-23T08:02:05.877Z,1007.01
2016-04-23T08:02:49.146Z,1007.05
2016-04-23T08:03:32.995Z,1007.06
2016-04-23T08:04:15.013Z,1006.97
2016-04-23T08:04:57.967Z,1007
2016-04-23T08:05:40.892Z,1007
2016-04-23T08:06:23.863Z,1007
2016-04-23T08:07:06.660Z,1007
2016-04-23T08:07:49.633Z,1006.99
2016-04-23T08:08:32.605Z,1007.02
2016-04-23T08:09:15.560Z,1007.09
2016-04-23T08:09:58.497Z,1007.05
2016-04-23T08:10:41.454Z,1007.01
2016-04-23T08:11:24.409Z,1006.99
2016-04-23T08:12:07.378Z,1007
2016-04-23T08:12:50.366Z,1006.95
2016-04-23T08:13:33.306Z,1007.01
2016-04-23T08:14:15.481Z,1006.98
2016-04-23T08:14:58.434Z,1007.04
2016-04-23T08:15:41.405Z,1006.99
2016-04-23T08:16:26.111Z,1006.96
2016-04-23T08:17:09.189Z,1006.98
2016-04-23T08:17:52.160Z,1006.97
2016-04-23T08:18:35.133Z,1006.98
2016-04-23T08:19:17.947Z,1006.97
2016-04-23T08:20:00.931Z,1006.9
2016-04-23T08:20:43.918Z,1006.84
2016-04-23T08:21:26.858Z,1006.87
2016-04-23T08:22:09.655Z,1006.86
2016-04-23T08:22:52.611Z,1006.93
2016-04-23T08:23:35.583Z,1006.85
2016-04-23T08:24:18.554Z,1006.83
2016-04-23T08:25:00.726Z,1006.81
2016-04-23T08:25:43.714Z,1006.8
2016-04-23T08:26:26.654Z,1006.82
2016-04-23T08:27:09.607Z,1006.77
2016-04-23T08:27:52.563Z,1006.82
2016-04-23T08:28:35.534Z,1006.79
2016-04-23T08:29:18.677Z,1006.78
2016-04-23T08:30:01.526Z,1006.77
2016-04-23T08:30:44.497Z,1006.73
2016-04-23T08:31:30.001Z,1006.72
2016-04-23T08:32:13.016Z,1006.72
2016-04-23T08:32:56.034Z,1006.74
2016-04-23T08:33:38.974Z,1006.8
2016-04-23T08:34:21.961Z,1006.79
2016-04-23T08:35:05.008Z,1006.72
2016-04-23T08:35:48.026Z,1006.72
2016-04-23T08:36:34.701Z,1006.74
2016-04-23T08:37:17.672Z,1006.72
2016-04-23T08:38:00.609Z,1006.76
2016-04-23T08:38:43.566Z,1006.71
2016-04-23T08:39:26.537Z,1006.72
2016-04-23T08:40:09.537Z,1006.73
2016-04-23T08:40:52.492Z,1006.72
2016-04-23T08:41:36.731Z,1006.73
2016-04-23T08:42:19.686Z,1006.74